sensor_id;sensor_type;location;lat;lon;timestamp;pressure;altitude;pressure_sealevel;temperature;humidity
59939;BME280;45801;51.810;19.444;2023-01-30T00:00:57;98891.58;;;1.94;73.58
59939;BME280;45801;51.810;19.444;2023-01-30T00:03:23;98884.74;;;1.75;73.80
59939;BME280;45801;51.810;19.444;2023-01-30T00:05:50;98880.77;;;1.70;73.68
59939;BME280;45801;51.810;19.444;2023-01-30T00:08:18;98884.04;;;1.54;73.96
59939;BME280;45801;51.810;19.444;2023-01-30T00:10:45;98879.82;;;1.45;74.18
59939;BME280;45801;51.810;19.444;2023-01-30T00:13:13;98881.84;;;1.33;74.42
59939;BME280;45801;51.810;19.444;2023-01-30T00:15:40;98876.91;;;1.32;74.50
59939;BME280;45801;51.810;19.444;2023-01-30T00:18:07;98868.96;;;1.22;74.57
59939;BME280;45801;51.810;19.444;2023-01-30T00:20:34;98860.49;;;1.17;74.85
59939;BME280;45801;51.810;19.444;2023-01-30T00:23:01;98850.93;;;1.14;75.01
59939;BME280;45801;51.810;19.444;2023-01-30T00:25:28;98845.25;;;1.16;74.87
59939;BME280;45801;51.810;19.444;2023-01-30T00:27:58;98837.63;;;1.13;74.84
59939;BME280;45801;51.810;19.444;2023-01-30T00:30:26;98833.35;;;1.07;74.66
59939;BME280;45801;51.810;19.444;2023-01-30T00:32:54;98829.23;;;1.07;74.65
59939;BME280;45801;51.810;19.444;2023-01-30T00:35:21;98819.49;;;1.06;74.61
59939;BME280;45801;51.810;19.444;2023-01-30T00:37:48;98811.20;;;1.03;74.61
59939;BME280;45801;51.810;19.444;2023-01-30T00:40:14;98806.15;;;0.91;74.81
59939;BME280;45801;51.810;19.444;2023-01-30T00:42:41;98801.75;;;0.69;75.65
59939;BME280;45801;51.810;19.444;2023-01-30T00:45:26;98794.83;;;0.61;76.31
59939;BME280;45801;51.810;19.444;2023-01-30T00:48:11;98789.12;;;0.66;76.01
59939;BME280;45801;51.810;19.444;2023-01-30T00:50:38;98780.85;;;0.75;75.51
59939;BME280;45801;51.810;19.444;2023-01-30T00:53:11;98776.89;;;0.80;75.42
59939;BME280;45801;51.810;19.444;2023-01-30T00:55:39;98774.23;;;0.79;75.26
59939;BME280;45801;51.810;19.444;2023-01-30T00:58:06;98769.04;;;0.79;75.25
59939;BME280;45801;51.810;19.444;2023-01-30T01:00:33;98764.39;;;0.76;75.25
59939;BME280;45801;51.810;19.444;2023-01-30T01:03:00;98757.38;;;0.73;75.24
59939;BME280;45801;51.810;19.444;2023-01-30T01:05:27;98747.75;;;0.73;75.22
59939;BME280;45801;51.810;19.444;2023-01-30T01:07:55;98736.73;;;0.75;75.33
59939;BME280;45801;51.810;19.444;2023-01-30T01:10:22;98725.40;;;0.74;75.01
59939;BME280;45801;51.810;19.444;2023-01-30T01:12:49;98722.22;;;0.77;74.95
59939;BME280;45801;51.810;19.444;2023-01-30T01:15:18;98715.77;;;0.76;74.74
59939;BME280;45801;51.810;19.444;2023-01-30T01:17:45;98705.34;;;0.80;74.44
59939;BME280;45801;51.810;19.444;2023-01-30T01:20:12;98696.52;;;0.79;74.58
59939;BME280;45801;51.810;19.444;2023-01-30T01:22:39;98687.63;;;0.83;74.58
59939;BME280;45801;51.810;19.444;2023-01-30T01:25:06;98685.75;;;0.81;74.33
59939;BME280;45801;51.810;19.444;2023-01-30T01:27:32;98693.89;;;0.74;74.44
59939;BME280;45801;51.810;19.444;2023-01-30T01:29:59;98693.06;;;0.72;74.29
59939;BME280;45801;51.810;19.444;2023-01-30T01:32:25;98682.59;;;0.75;74.44
59939;BME280;45801;51.810;19.444;2023-01-30T01:34:52;98677.45;;;0.76;74.63
59939;BME280;45801;51.810;19.444;2023-01-30T01:37:19;98674.96;;;0.79;74.27
59939;BME280;45801;51.810;19.444;2023-01-30T01:39:45;98670.96;;;0.76;74.28
59939;BME280;45801;51.810;19.444;2023-01-30T01:42:34;98669.00;;;0.80;74.08
59939;BME280;45801;51.810;19.444;2023-01-30T01:45:44;98663.14;;;0.78;73.69
59939;BME280;45801;51.810;19.444;2023-01-30T01:48:07;98677.65;;;0.52;74.36
59939;BME280;45801;51.810;19.444;2023-01-30T01:50:52;98676.50;;;0.53;74.54
59939;BME280;45801;51.810;19.444;2023-01-30T01:53:25;98672.91;;;0.56;74.57
59939;BME280;45801;51.810;19.444;2023-01-30T01:55:55;98671.92;;;0.56;74.31
59939;BME280;45801;51.810;19.444;2023-01-30T02:01:23;98657.64;;;0.49;74.34
59939;BME280;45801;51.810;19.444;2023-01-30T02:03:54;98656.39;;;0.47;74.27
59939;BME280;45801;51.810;19.444;2023-01-30T02:06:22;98652.94;;;0.44;74.75
59939;BME280;45801;51.810;19.444;2023-01-30T02:08:51;98647.05;;;0.41;74.81
59939;BME280;45801;51.810;19.444;2023-01-30T02:11:41;98641.51;;;0.51;74.59
59939;BME280;45801;51.810;19.444;2023-01-30T02:14:11;98641.34;;;0.50;74.38
59939;BME280;45801;51.810;19.444;2023-01-30T02:16:39;98635.62;;;0.50;74.01
59939;BME280;45801;51.810;19.444;2023-01-30T02:19:18;98628.82;;;0.47;74.00
59939;BME280;45801;51.810;19.444;2023-01-30T02:28:24;98609.36;;;0.44;74.10
59939;BME280;45801;51.810;19.444;2023-01-30T02:30:42;98600.52;;;0.46;74.19
59939;BME280;45801;51.810;19.444;2023-01-30T02:33:36;98592.01;;;0.55;74.27
59939;BME280;45801;51.810;19.444;2023-01-30T02:36:19;98591.72;;;0.58;73.64
59939;BME280;45801;51.810;19.444;2023-01-30T02:42:31;98582.04;;;0.55;73.43
59939;BME280;45801;51.810;19.444;2023-01-30T02:45:14;98574.92;;;0.57;73.26
59939;BME280;45801;51.810;19.444;2023-01-30T02:50:24;98566.64;;;0.37;73.34
59939;BME280;45801;51.810;19.444;2023-01-30T02:52:52;98552.48;;;0.39;73.62
59939;BME280;45801;51.810;19.444;2023-01-30T02:55:25;98541.59;;;0.34;73.48
59939;BME280;45801;51.810;19.444;2023-01-30T02:57:53;98539.92;;;0.32;73.55
59939;BME280;45801;51.810;19.444;2023-01-30T03:00:29;98530.64;;;0.32;73.27
59939;BME280;45801;51.810;19.444;2023-01-30T03:03:21;98523.92;;;0.30;73.20
59939;BME280;45801;51.810;19.444;2023-01-30T03:09:02;98510.48;;;0.25;72.99
59939;BME280;45801;51.810;19.444;2023-01-30T03:11:49;98500.49;;;0.20;73.32
59939;BME280;45801;51.810;19.444;2023-01-30T03:14:34;98490.08;;;0.17;73.36
59939;BME280;45801;51.810;19.444;2023-01-30T03:17:06;98484.09;;;0.12;73.35
59939;BME280;45801;51.810;19.444;2023-01-30T03:19:34;98484.70;;;0.21;73.18
59939;BME280;45801;51.810;19.444;2023-01-30T03:22:01;98479.88;;;0.26;73.22
59939;BME280;45801;51.810;19.444;2023-01-30T03:24:28;98473.02;;;0.29;72.94
59939;BME280;45801;51.810;19.444;2023-01-30T03:26:58;98465.00;;;0.35;72.85
59939;BME280;45801;51.810;19.444;2023-01-30T03:29:26;98457.31;;;0.31;72.69
59939;BME280;45801;51.810;19.444;2023-01-30T03:31:52;98459.77;;;0.19;73.39
59939;BME280;45801;51.810;19.444;2023-01-30T03:34:19;98454.46;;;0.10;73.88
59939;BME280;45801;51.810;19.444;2023-01-30T03:36:46;98452.50;;;0.04;74.34
59939;BME280;45801;51.810;19.444;2023-01-30T03:39:13;98444.04;;;0.01;74.22
59939;BME280;45801;51.810;19.444;2023-01-30T03:41:39;98434.77;;;-0.08;74.63
59939;BME280;45801;51.810;19.444;2023-01-30T03:44:06;98428.52;;;-0.13;75.07
59939;BME280;45801;51.810;19.444;2023-01-30T03:46:33;98424.14;;;-0.20;75.49
59939;BME280;45801;51.810;19.444;2023-01-30T03:49:00;98418.27;;;-0.17;75.50
59939;BME280;45801;51.810;19.444;2023-01-30T03:51:26;98405.82;;;-0.13;75.69
59939;BME280;45801;51.810;19.444;2023-01-30T03:53:53;98403.08;;;-0.11;75.36
59939;BME280;45801;51.810;19.444;2023-01-30T03:56:19;98391.88;;;-0.13;75.58
59939;BME280;45801;51.810;19.444;2023-01-30T03:58:46;98388.39;;;-0.19;76.08
59939;BME280;45801;51.810;19.444;2023-01-30T04:01:12;98378.54;;;-0.25;76.10
59939;BME280;45801;51.810;19.444;2023-01-30T04:03:39;98365.64;;;-0.22;75.99
59939;BME280;45801;51.810;19.444;2023-01-30T04:06:05;98363.38;;;-0.20;76.24
59939;BME280;45801;51.810;19.444;2023-01-30T04:08:32;98351.23;;;-0.21;76.02
59939;BME280;45801;51.810;19.444;2023-01-30T04:10:59;98345.45;;;-0.23;76.06
59939;BME280;45801;51.810;19.444;2023-01-30T04:13:25;98344.07;;;-0.20;75.69
59939;BME280;45801;51.810;19.444;2023-01-30T04:15:52;98342.45;;;-0.28;75.98
59939;BME280;45801;51.810;19.444;2023-01-30T04:18:18;98341.30;;;-0.30;76.01
59939;BME280;45801;51.810;19.444;2023-01-30T04:20:45;98342.48;;;-0.33;75.92
59939;BME280;45801;51.810;19.444;2023-01-30T04:23:11;98342.00;;;-0.25;75.73
59939;BME280;45801;51.810;19.444;2023-01-30T04:25:38;98340.27;;;-0.23;75.63
59939;BME280;45801;51.810;19.444;2023-01-30T04:28:04;98341.77;;;-0.29;75.60
59939;BME280;45801;51.810;19.444;2023-01-30T04:30:31;98343.93;;;-0.32;75.65
59939;BME280;45801;51.810;19.444;2023-01-30T04:32:57;98342.83;;;-0.35;75.49
59939;BME280;45801;51.810;19.444;2023-01-30T04:35:24;98343.13;;;-0.36;75.41
59939;BME280;45801;51.810;19.444;2023-01-30T04:37:50;98338.73;;;-0.30;75.03
59939;BME280;45801;51.810;19.444;2023-01-30T04:40:17;98339.27;;;-0.34;74.54
59939;BME280;45801;51.810;19.444;2023-01-30T04:42:43;98343.91;;;-0.35;74.73
59939;BME280;45801;51.810;19.444;2023-01-30T04:45:10;98327.98;;;-0.41;74.51
59939;BME280;45801;51.810;19.444;2023-01-30T04:47:37;98314.20;;;-0.29;74.26
59939;BME280;45801;51.810;19.444;2023-01-30T04:50:04;98301.41;;;-0.22;73.91
59939;BME280;45801;51.810;19.444;2023-01-30T04:52:31;98298.88;;;-0.17;73.41
59939;BME280;45801;51.810;19.444;2023-01-30T04:54:57;98282.77;;;-0.13;72.69
59939;BME280;45801;51.810;19.444;2023-01-30T04:57:24;98267.37;;;-0.14;72.35
59939;BME280;45801;51.810;19.444;2023-01-30T04:59:50;98271.42;;;-0.20;72.40
59939;BME280;45801;51.810;19.444;2023-01-30T05:02:17;98266.15;;;-0.27;72.31
59939;BME280;45801;51.810;19.444;2023-01-30T05:04:43;98261.10;;;-0.33;72.52
59939;BME280;45801;51.810;19.444;2023-01-30T05:07:10;98254.78;;;-0.47;73.02
59939;BME280;45801;51.810;19.444;2023-01-30T05:09:37;98243.09;;;-0.42;73.27
59939;BME280;45801;51.810;19.444;2023-01-30T05:12:03;98232.02;;;-0.40;72.87
59939;BME280;45801;51.810;19.444;2023-01-30T05:14:30;98233.23;;;-0.40;72.47
59939;BME280;45801;51.810;19.444;2023-01-30T05:16:56;98225.80;;;-0.48;72.75
59939;BME280;45801;51.810;19.444;2023-01-30T05:19:23;98217.35;;;-0.46;72.93
59939;BME280;45801;51.810;19.444;2023-01-30T05:21:49;98210.30;;;-0.44;72.42
59939;BME280;45801;51.810;19.444;2023-01-30T05:24:17;98201.36;;;-0.43;72.41
59939;BME280;45801;51.810;19.444;2023-01-30T05:26:43;98195.45;;;-0.44;72.35
59939;BME280;45801;51.810;19.444;2023-01-30T05:29:10;98187.70;;;-0.37;71.94
59939;BME280;45801;51.810;19.444;2023-01-30T05:31:36;98190.98;;;-0.32;71.93
59939;BME280;45801;51.810;19.444;2023-01-30T05:34:03;98189.34;;;-0.26;71.65
59939;BME280;45801;51.810;19.444;2023-01-30T05:36:30;98189.90;;;-0.22;71.83
59939;BME280;45801;51.810;19.444;2023-01-30T05:38:56;98190.10;;;-0.25;71.40
59939;BME280;45801;51.810;19.444;2023-01-30T05:41:23;98187.09;;;-0.31;71.31
59939;BME280;45801;51.810;19.444;2023-01-30T05:43:50;98179.05;;;-0.38;72.33
59939;BME280;45801;51.810;19.444;2023-01-30T05:46:17;98181.17;;;-0.49;74.85
59939;BME280;45801;51.810;19.444;2023-01-30T05:48:43;98190.96;;;-0.60;76.33
59939;BME280;45801;51.810;19.444;2023-01-30T05:51:21;98187.30;;;-0.70;77.39
59939;BME280;45801;51.810;19.444;2023-01-30T05:53:49;98186.91;;;-0.76;77.20
59939;BME280;45801;51.810;19.444;2023-01-30T05:56:17;98187.07;;;-0.76;76.51
59939;BME280;45801;51.810;19.444;2023-01-30T05:58:50;98185.91;;;-0.70;75.61
59939;BME280;45801;51.810;19.444;2023-01-30T06:01:17;98184.64;;;-0.71;74.87
59939;BME280;45801;51.810;19.444;2023-01-30T06:03:44;98189.52;;;-0.68;74.17
59939;BME280;45801;51.810;19.444;2023-01-30T06:06:11;98190.02;;;-0.58;73.55
59939;BME280;45801;51.810;19.444;2023-01-30T06:08:38;98185.36;;;-0.56;72.87
59939;BME280;45801;51.810;19.444;2023-01-30T06:11:08;98179.60;;;-0.50;72.68
59939;BME280;45801;51.810;19.444;2023-01-30T06:13:36;98179.55;;;-0.63;72.24
59939;BME280;45801;51.810;19.444;2023-01-30T06:16:05;98165.19;;;-0.66;72.55
59939;BME280;45801;51.810;19.444;2023-01-30T06:18:33;98157.39;;;-0.60;72.49
59939;BME280;45801;51.810;19.444;2023-01-30T06:20:59;98156.70;;;-0.55;71.88
59939;BME280;45801;51.810;19.444;2023-01-30T06:23:27;98150.42;;;-0.59;71.85
59939;BME280;45801;51.810;19.444;2023-01-30T06:25:54;98143.06;;;-0.58;72.16
59939;BME280;45801;51.810;19.444;2023-01-30T06:28:22;98142.55;;;-0.63;72.05
59939;BME280;45801;51.810;19.444;2023-01-30T06:30:49;98138.25;;;-0.65;71.86
59939;BME280;45801;51.810;19.444;2023-01-30T06:33:16;98139.50;;;-0.67;71.77
59939;BME280;45801;51.810;19.444;2023-01-30T06:35:43;98130.56;;;-0.67;71.93
59939;BME280;45801;51.810;19.444;2023-01-30T06:38:10;98126.71;;;-0.73;71.82
59939;BME280;45801;51.810;19.444;2023-01-30T06:40:37;98121.64;;;-0.75;71.50
59939;BME280;45801;51.810;19.444;2023-01-30T06:43:04;98112.91;;;-0.72;71.51
59939;BME280;45801;51.810;19.444;2023-01-30T06:45:31;98107.55;;;-0.65;71.62
59939;BME280;45801;51.810;19.444;2023-01-30T06:47:57;98108.27;;;-0.67;71.09
59939;BME280;45801;51.810;19.444;2023-01-30T06:50:26;98106.41;;;-0.69;71.29
59939;BME280;45801;51.810;19.444;2023-01-30T06:52:54;98106.95;;;-0.76;71.57
59939;BME280;45801;51.810;19.444;2023-01-30T06:55:23;98110.54;;;-0.74;71.79
59939;BME280;45801;51.810;19.444;2023-01-30T06:58:03;98104.89;;;-0.71;71.40
59939;BME280;45801;51.810;19.444;2023-01-30T07:00:32;98097.80;;;-0.74;71.65
59939;BME280;45801;51.810;19.444;2023-01-30T07:02:59;98090.96;;;-0.73;71.88
59939;BME280;45801;51.810;19.444;2023-01-30T07:05:26;98082.71;;;-0.76;72.28
59939;BME280;45801;51.810;19.444;2023-01-30T07:07:54;98074.92;;;-0.81;72.96
59939;BME280;45801;51.810;19.444;2023-01-30T07:10:20;98071.79;;;-0.79;73.01
59939;BME280;45801;51.810;19.444;2023-01-30T07:12:47;98061.58;;;-0.78;73.00
59939;BME280;45801;51.810;19.444;2023-01-30T07:15:14;98052.77;;;-0.74;73.38
59939;BME280;45801;51.810;19.444;2023-01-30T07:17:40;98049.27;;;-0.75;73.50
59939;BME280;45801;51.810;19.444;2023-01-30T07:20:08;98047.59;;;-0.74;73.55
59939;BME280;45801;51.810;19.444;2023-01-30T07:22:36;98047.78;;;-0.74;73.43
59939;BME280;45801;51.810;19.444;2023-01-30T07:25:04;98046.61;;;-0.68;73.76
59939;BME280;45801;51.810;19.444;2023-01-30T07:27:31;98042.18;;;-0.62;73.68
59939;BME280;45801;51.810;19.444;2023-01-30T07:29:57;98038.22;;;-0.65;73.75
59939;BME280;45801;51.810;19.444;2023-01-30T07:32:24;98038.34;;;-0.68;73.97
59939;BME280;45801;51.810;19.444;2023-01-30T07:34:51;98035.48;;;-0.65;73.94
59939;BME280;45801;51.810;19.444;2023-01-30T07:37:18;98037.18;;;-0.70;74.25
59939;BME280;45801;51.810;19.444;2023-01-30T07:39:45;98030.40;;;-0.71;74.31
59939;BME280;45801;51.810;19.444;2023-01-30T07:42:11;98028.11;;;-0.67;74.42
59939;BME280;45801;51.810;19.444;2023-01-30T07:44:38;98022.02;;;-0.68;74.72
59939;BME280;45801;51.810;19.444;2023-01-30T07:47:04;98028.26;;;-0.73;74.86
59939;BME280;45801;51.810;19.444;2023-01-30T07:49:31;98029.17;;;-0.69;74.77
59939;BME280;45801;51.810;19.444;2023-01-30T07:51:58;98028.52;;;-0.76;75.46
59939;BME280;45801;51.810;19.444;2023-01-30T07:54:24;98032.13;;;-0.81;75.81
59939;BME280;45801;51.810;19.444;2023-01-30T07:56:52;98030.50;;;-0.93;76.18
59939;BME280;45801;51.810;19.444;2023-01-30T07:59:18;98027.59;;;-0.90;76.42
59939;BME280;45801;51.810;19.444;2023-01-30T08:01:44;98027.46;;;-0.92;76.63
59939;BME280;45801;51.810;19.444;2023-01-30T08:04:11;98020.51;;;-0.85;76.04
59939;BME280;45801;51.810;19.444;2023-01-30T08:06:37;98017.76;;;-0.78;76.48
59939;BME280;45801;51.810;19.444;2023-01-30T08:09:05;98018.82;;;-0.83;76.88
59939;BME280;45801;51.810;19.444;2023-01-30T08:11:32;98024.27;;;-0.80;77.00
59939;BME280;45801;51.810;19.444;2023-01-30T08:13:59;98016.61;;;-0.77;76.92
59939;BME280;45801;51.810;19.444;2023-01-30T08:16:25;98017.33;;;-0.71;77.07
59939;BME280;45801;51.810;19.444;2023-01-30T08:18:52;98013.46;;;-0.67;77.40
59939;BME280;45801;51.810;19.444;2023-01-30T08:21:18;98012.88;;;-0.66;77.73
59939;BME280;45801;51.810;19.444;2023-01-30T08:23:45;98008.61;;;-0.63;77.78
59939;BME280;45801;51.810;19.444;2023-01-30T08:26:11;97999.78;;;-0.64;78.17
59939;BME280;45801;51.810;19.444;2023-01-30T08:28:38;97990.84;;;-0.61;78.44
59939;BME280;45801;51.810;19.444;2023-01-30T08:31:08;97989.95;;;-0.62;78.64
59939;BME280;45801;51.810;19.444;2023-01-30T08:33:35;97991.52;;;-0.61;79.11
59939;BME280;45801;51.810;19.444;2023-01-30T08:36:02;97989.89;;;-0.60;79.04
59939;BME280;45801;51.810;19.444;2023-01-30T08:38:29;97983.09;;;-0.53;79.05
59939;BME280;45801;51.810;19.444;2023-01-30T08:40:55;97984.33;;;-0.56;79.35
59939;BME280;45801;51.810;19.444;2023-01-30T08:43:23;97972.55;;;-0.60;79.65
59939;BME280;45801;51.810;19.444;2023-01-30T08:45:52;97969.05;;;-0.60;79.73
59939;BME280;45801;51.810;19.444;2023-01-30T08:48:20;97967.66;;;-0.53;79.65
59939;BME280;45801;51.810;19.444;2023-01-30T08:50:46;97960.80;;;-0.45;79.26
59939;BME280;45801;51.810;19.444;2023-01-30T08:53:13;97952.97;;;-0.33;78.64
59939;BME280;45801;51.810;19.444;2023-01-30T08:55:39;97949.35;;;-0.25;78.32
59939;BME280;45801;51.810;19.444;2023-01-30T08:58:06;97946.72;;;-0.20;78.12
59939;BME280;45801;51.810;19.444;2023-01-30T09:00:32;97944.34;;;-0.17;78.31
59939;BME280;45801;51.810;19.444;2023-01-30T09:02:59;97947.55;;;-0.15;78.26
59939;BME280;45801;51.810;19.444;2023-01-30T09:05:27;97951.23;;;-0.06;77.80
59939;BME280;45801;51.810;19.444;2023-01-30T09:07:55;97947.49;;;-0.08;78.24
59939;BME280;45801;51.810;19.444;2023-01-30T09:10:22;97939.65;;;-0.01;78.03
59939;BME280;45801;51.810;19.444;2023-01-30T09:12:49;97946.08;;;-0.00;77.92
59939;BME280;45801;51.810;19.444;2023-01-30T09:15:16;97945.34;;;-0.06;78.37
59939;BME280;45801;51.810;19.444;2023-01-30T09:17:43;97938.83;;;-0.09;78.58
59939;BME280;45801;51.810;19.444;2023-01-30T09:20:11;97941.11;;;-0.14;78.82
59939;BME280;45801;51.810;19.444;2023-01-30T09:22:38;97930.69;;;-0.07;78.63
59939;BME280;45801;51.810;19.444;2023-01-30T09:25:05;97923.17;;;-0.01;78.64
59939;BME280;45801;51.810;19.444;2023-01-30T09:27:31;97919.27;;;-0.03;79.02
59939;BME280;45801;51.810;19.444;2023-01-30T09:29:58;97924.90;;;-0.11;80.05
59939;BME280;45801;51.810;19.444;2023-01-30T09:32:25;97917.34;;;-0.11;80.15
59939;BME280;45801;51.810;19.444;2023-01-30T09:34:51;97914.38;;;-0.09;80.00
59939;BME280;45801;51.810;19.444;2023-01-30T09:37:18;97908.48;;;-0.12;80.60
59939;BME280;45801;51.810;19.444;2023-01-30T09:39:45;97914.23;;;-0.14;81.00
59939;BME280;45801;51.810;19.444;2023-01-30T09:53:49;97889.16;;;-0.02;81.56
59939;BME280;45801;51.810;19.444;2023-01-30T09:56:20;97886.86;;;-0.01;81.70
59939;BME280;45801;51.810;19.444;2023-01-30T09:58:49;97882.48;;;-0.02;82.03
59939;BME280;45801;51.810;19.444;2023-01-30T10:01:29;97881.52;;;-0.01;82.28
59939;BME280;45801;51.810;19.444;2023-01-30T10:04:24;97882.33;;;0.01;82.32
59939;BME280;45801;51.810;19.444;2023-01-30T10:09:57;97865.56;;;0.03;81.80
59939;BME280;45801;51.810;19.444;2023-01-30T10:15:39;97858.11;;;0.22;81.35
59939;BME280;45801;51.810;19.444;2023-01-30T10:21:41;97848.33;;;0.34;80.67
59939;BME280;45801;51.810;19.444;2023-01-30T10:26:45;97847.41;;;0.50;80.18
59939;BME280;45801;51.810;19.444;2023-01-30T10:29:27;97843.25;;;0.56;79.74
59939;BME280;45801;51.810;19.444;2023-01-30T10:34:36;97833.81;;;0.68;79.40
59939;BME280;45801;51.810;19.444;2023-01-30T10:37:18;97829.20;;;0.66;79.71
59939;BME280;45801;51.810;19.444;2023-01-30T10:42:54;97827.48;;;0.65;79.89
59939;BME280;45801;51.810;19.444;2023-01-30T10:48:52;97815.55;;;0.71;80.05
59939;BME280;45801;51.810;19.444;2023-01-30T10:54:15;97813.30;;;0.74;79.55
59939;BME280;45801;51.810;19.444;2023-01-30T10:56:51;97808.14;;;0.77;79.87
59939;BME280;45801;51.810;19.444;2023-01-30T11:02:24;97802.40;;;0.61;80.93
59939;BME280;45801;51.810;19.444;2023-01-30T11:04:57;97796.09;;;0.65;80.81
59939;BME280;45801;51.810;19.444;2023-01-30T11:07:29;97801.75;;;0.56;81.15
59939;BME280;45801;51.810;19.444;2023-01-30T11:09:56;97799.80;;;0.58;81.08
59939;BME280;45801;51.810;19.444;2023-01-30T11:12:23;97796.52;;;0.61;81.17
59939;BME280;45801;51.810;19.444;2023-01-30T11:17:35;97786.73;;;0.61;81.25
59939;BME280;45801;51.810;19.444;2023-01-30T11:20:17;97786.63;;;0.65;81.31
59939;BME280;45801;51.810;19.444;2023-01-30T11:23:38;97777.14;;;0.62;81.49
59939;BME280;45801;51.810;19.444;2023-01-30T11:25:47;97776.41;;;0.62;81.44
59939;BME280;45801;51.810;19.444;2023-01-30T11:28:14;97769.47;;;0.64;81.30
59939;BME280;45801;51.810;19.444;2023-01-30T11:30:59;97765.27;;;0.69;81.07
59939;BME280;45801;51.810;19.444;2023-01-30T11:33:36;97762.42;;;0.64;81.47
59939;BME280;45801;51.810;19.444;2023-01-30T11:36:24;97752.90;;;0.66;81.48
59939;BME280;45801;51.810;19.444;2023-01-30T11:38:59;97748.42;;;0.69;81.54
59939;BME280;45801;51.810;19.444;2023-01-30T11:41:27;97744.89;;;0.77;81.16
59939;BME280;45801;51.810;19.444;2023-01-30T11:44:02;97742.23;;;0.81;81.17
59939;BME280;45801;51.810;19.444;2023-01-30T11:46:33;97741.25;;;0.85;81.73
59939;BME280;45801;51.810;19.444;2023-01-30T11:49:11;97734.41;;;0.95;81.51
59939;BME280;45801;51.810;19.444;2023-01-30T11:51:42;97730.30;;;0.84;81.65
59939;BME280;45801;51.810;19.444;2023-01-30T11:54:28;97727.45;;;0.85;81.64
59939;BME280;45801;51.810;19.444;2023-01-30T11:56:57;97725.31;;;0.87;81.65
59939;BME280;45801;51.810;19.444;2023-01-30T11:59:33;97724.98;;;0.84;81.75
59939;BME280;45801;51.810;19.444;2023-01-30T12:04:30;97710.67;;;0.97;81.29
59939;BME280;45801;51.810;19.444;2023-01-30T12:07:23;97705.58;;;0.92;81.25
59939;BME280;45801;51.810;19.444;2023-01-30T12:09:51;97699.34;;;0.94;81.27
59939;BME280;45801;51.810;19.444;2023-01-30T12:14:53;97695.42;;;0.98;81.17
59939;BME280;45801;51.810;19.444;2023-01-30T12:17:37;97694.34;;;1.04;81.18
59939;BME280;45801;51.810;19.444;2023-01-30T12:20:28;97694.15;;;1.03;81.21
59939;BME280;45801;51.810;19.444;2023-01-30T12:23:04;97689.42;;;1.08;80.87
59939;BME280;45801;51.810;19.444;2023-01-30T12:25:40;97685.98;;;1.09;80.95
59939;BME280;45801;51.810;19.444;2023-01-30T12:30:49;97687.78;;;1.10;81.19
59939;BME280;45801;51.810;19.444;2023-01-30T12:33:18;97692.25;;;1.09;81.22
59939;BME280;45801;51.810;19.444;2023-01-30T12:57:53;97697.96;;;1.13;81.67
59939;BME280;45801;51.810;19.444;2023-01-30T13:03:18;97694.79;;;1.08;82.64
59939;BME280;45801;51.810;19.444;2023-01-30T13:06:07;97698.60;;;1.09;82.72
59939;BME280;45801;51.810;19.444;2023-01-30T13:20:04;97677.56;;;1.25;81.44
59939;BME280;45801;51.810;19.444;2023-01-30T13:28:11;97681.63;;;1.30;81.42
59939;BME280;45801;51.810;19.444;2023-01-30T13:30:41;97687.73;;;1.28;81.51
59939;BME280;45801;51.810;19.444;2023-01-30T13:33:21;97688.16;;;1.30;81.57
59939;BME280;45801;51.810;19.444;2023-01-30T13:36:12;97688.90;;;1.27;81.60
59939;BME280;45801;51.810;19.444;2023-01-30T13:38:51;97689.50;;;1.25;81.55
59939;BME280;45801;51.810;19.444;2023-01-30T13:41:22;97689.30;;;1.22;81.98
59939;BME280;45801;51.810;19.444;2023-01-30T13:43:52;97693.33;;;1.14;82.97
59939;BME280;45801;51.810;19.444;2023-01-30T13:46:27;97696.73;;;1.16;82.52
59939;BME280;45801;51.810;19.444;2023-01-30T13:54:25;97693.45;;;1.28;82.28
59939;BME280;45801;51.810;19.444;2023-01-30T13:56:55;97691.14;;;1.36;82.30
59939;BME280;45801;51.810;19.444;2023-01-30T14:04:46;97688.60;;;1.44;82.01
59939;BME280;45801;51.810;19.444;2023-01-30T14:10:32;97689.48;;;1.44;82.36
59939;BME280;45801;51.810;19.444;2023-01-30T14:12:46;97694.75;;;1.49;82.15
59939;BME280;45801;51.810;19.444;2023-01-30T14:18:03;97685.48;;;1.60;81.79
59939;BME280;45801;51.810;19.444;2023-01-30T14:20:35;97694.26;;;1.60;81.85
59939;BME280;45801;51.810;19.444;2023-01-30T14:23:19;97699.30;;;1.64;81.75
59939;BME280;45801;51.810;19.444;2023-01-30T14:25:49;97700.34;;;1.67;81.75
59939;BME280;45801;51.810;19.444;2023-01-30T14:35:46;97697.25;;;1.67;81.93
59939;BME280;45801;51.810;19.444;2023-01-30T14:38:16;97693.66;;;1.68;81.97
59939;BME280;45801;51.810;19.444;2023-01-30T14:40:45;97694.55;;;1.62;82.24
59939;BME280;45801;51.810;19.444;2023-01-30T14:51:18;97689.15;;;1.64;82.60
59939;BME280;45801;51.810;19.444;2023-01-30T14:57:01;97690.80;;;1.66;82.41
59939;BME280;45801;51.810;19.444;2023-01-30T15:00:05;97690.80;;;1.66;82.60
59939;BME280;45801;51.810;19.444;2023-01-30T15:02:46;97690.45;;;1.59;83.21
59939;BME280;45801;51.810;19.444;2023-01-30T15:05:17;97688.40;;;1.56;83.50
59939;BME280;45801;51.810;19.444;2023-01-30T15:07:48;97688.05;;;1.66;82.79
59939;BME280;45801;51.810;19.444;2023-01-30T15:15:49;97680.96;;;1.76;82.70
59939;BME280;45801;51.810;19.444;2023-01-30T15:18:43;97686.75;;;1.81;82.24
59939;BME280;45801;51.810;19.444;2023-01-30T15:21:29;97680.94;;;1.85;81.81
59939;BME280;45801;51.810;19.444;2023-01-30T15:26:56;97698.11;;;1.90;81.80
59939;BME280;45801;51.810;19.444;2023-01-30T15:32:31;97702.89;;;1.92;81.51
59939;BME280;45801;51.810;19.444;2023-01-30T15:35:11;97709.08;;;1.88;81.68
59939;BME280;45801;51.810;19.444;2023-01-30T15:37:49;97717.95;;;1.83;82.06
59939;BME280;45801;51.810;19.444;2023-01-30T15:46:16;97724.54;;;1.84;82.53
59939;BME280;45801;51.810;19.444;2023-01-30T15:49:21;97727.02;;;1.91;82.10
59939;BME280;45801;51.810;19.444;2023-01-30T15:51:51;97729.90;;;1.94;82.09
59939;BME280;45801;51.810;19.444;2023-01-30T15:54:21;97725.67;;;1.96;81.70